createdAt,value
2018-08-09T00:00:59.968Z,7.67
2018-08-09T00:03:33.241Z,5.53
2018-08-09T00:06:05.032Z,5.93
2018-08-09T00:08:36.759Z,4.53
2018-08-09T00:11:10.828Z,5.13
2018-08-09T00:13:42.116Z,7.67
2018-08-09T00:16:13.343Z,7.30
2018-08-09T00:18:45.411Z,4.20
2018-08-09T00:21:17.456Z,4.63
2018-08-09T00:23:49.556Z,4.53
2018-08-09T00:26:21.528Z,4.23
2018-08-09T00:28:53.874Z,5.70
2018-08-09T00:31:26.691Z,4.57
2018-08-09T00:33:58.979Z,4.37
2018-08-09T00:36:30.221Z,5.03
2018-08-09T00:39:01.663Z,5.17
2018-08-09T00:41:33.990Z,4.80
2018-08-09T00:44:05.132Z,3.93
2018-08-09T00:46:38.374Z,3.97
2018-08-09T00:49:10.343Z,4.83
2018-08-09T00:51:41.869Z,6.20
2018-08-09T00:54:13.933Z,5.60
2018-08-09T00:56:46.215Z,5.93
2018-08-09T00:59:17.663Z,5.93
2018-08-09T01:01:48.996Z,7.80
2018-08-09T01:04:20.584Z,4.00
2018-08-09T01:06:52.418Z,6.60
2018-08-09T01:09:23.879Z,5.63
2018-08-09T01:11:55.445Z,6.87
2018-08-09T01:14:27.145Z,4.23
2018-08-09T01:16:59.204Z,4.73
2018-08-09T01:19:32.190Z,5.10
2018-08-09T01:22:02.946Z,6.57
2018-08-09T01:24:35.027Z,5.17
2018-08-09T01:27:14.537Z,5.50
2018-08-09T01:29:46.740Z,5.97
2018-08-09T01:32:18.103Z,4.63
2018-08-09T01:35:04.882Z,5.80
2018-08-09T01:37:37.834Z,5.97
2018-08-09T01:40:09.480Z,4.90
2018-08-09T01:42:54.319Z,4.97
2018-08-09T01:45:26.503Z,7.30
2018-08-09T01:47:58.041Z,6.10
2018-08-09T01:50:32.421Z,5.90
2018-08-09T01:53:04.018Z,5.43
2018-08-09T01:55:48.611Z,5.17
2018-08-09T01:58:20.456Z,6.23
2018-08-09T02:00:52.746Z,7.87
2018-08-09T02:03:24.052Z,5.07
2018-08-09T02:05:55.942Z,7.00
2018-08-09T02:08:27.611Z,7.03
2018-08-09T02:10:59.305Z,5.13
2018-08-09T02:13:30.369Z,5.20
2018-08-09T02:16:02.111Z,8.53
2018-08-09T02:18:36.780Z,7.13
2018-08-09T02:21:08.415Z,5.60
2018-08-09T02:23:41.669Z,10.10
2018-08-09T02:26:13.364Z,7.20
2018-08-09T02:28:45.694Z,5.10
2018-08-09T02:31:17.137Z,7.57
2018-08-09T02:33:48.942Z,5.07
2018-08-09T02:36:20.580Z,10.50
2018-08-09T02:38:55.734Z,8.53
2018-08-09T02:41:27.701Z,8.53
2018-08-09T02:43:59.362Z,7.03
2018-08-09T02:46:31.048Z,6.40
2018-08-09T02:49:02.311Z,7.00
2018-08-09T02:51:34.312Z,8.13
2018-08-09T02:54:05.381Z,5.93
2018-08-09T02:56:37.745Z,6.83
2018-08-09T02:59:09.041Z,5.37
2018-08-09T03:01:41.206Z,7.00
2018-08-09T03:04:12.872Z,8.10
2018-08-09T03:06:46.726Z,7.57
2018-08-09T03:09:18.708Z,7.83
2018-08-09T03:11:57.311Z,7.80
2018-08-09T03:14:29.140Z,9.23
2018-08-09T03:17:01.513Z,8.20
2018-08-09T03:19:32.903Z,8.30
2018-08-09T03:22:03.903Z,7.87
2018-08-09T03:24:35.084Z,8.70
2018-08-09T03:27:06.493Z,8.37
2018-08-09T03:29:38.315Z,7.03
2018-08-09T03:32:10.099Z,7.83
2018-08-09T03:34:41.940Z,9.97
2018-08-09T03:37:13.766Z,9.37
2018-08-09T03:39:45.616Z,10.70
2018-08-09T03:42:17.786Z,8.60
2018-08-09T03:44:50.029Z,9.27
2018-08-09T03:47:21.773Z,6.37
2018-08-09T03:49:53.759Z,5.93
2018-08-09T03:52:25.958Z,8.20
2018-08-09T03:54:57.464Z,9.13
2018-08-09T03:57:32.033Z,12.57
2018-08-09T04:00:03.983Z,7.07
2018-08-09T04:02:35.650Z,6.43
2018-08-09T04:05:13.821Z,8.00
2018-08-09T04:07:46.049Z,8.37
2018-08-09T04:10:17.629Z,9.03
2018-08-09T04:12:51.536Z,7.43
2018-08-09T04:15:23.337Z,8.03
2018-08-09T04:17:55.663Z,7.43
2018-08-09T04:20:27.303Z,8.87
2018-08-09T04:22:58.799Z,8.60
2018-08-09T04:25:30.705Z,8.63
2018-08-09T04:28:01.924Z,7.10
2018-08-09T04:30:34.418Z,6.63
2018-08-09T04:33:06.334Z,6.63
2018-08-09T04:35:37.916Z,12.77
2018-08-09T04:38:10.143Z,9.30
2018-08-09T04:40:42.891Z,7.10
2018-08-09T04:43:15.922Z,8.63
2018-08-09T04:45:48.581Z,10.43
2018-08-09T04:48:21.220Z,7.20
2018-08-09T04:50:54.356Z,10.07
2018-08-09T04:53:26.853Z,6.13
2018-08-09T04:55:59.477Z,10.63
2018-08-09T04:58:31.803Z,8.07
2018-08-09T05:01:04.080Z,7.83
2018-08-09T05:03:37.143Z,6.23
2018-08-09T05:06:09.559Z,5.33
2018-08-09T05:08:41.937Z,6.37
2018-08-09T05:11:14.248Z,5.97
2018-08-09T05:13:46.065Z,5.50
2018-08-09T05:16:18.411Z,6.93
2018-08-09T05:18:50.754Z,8.87
2018-08-09T05:21:23.967Z,10.90
2018-08-09T05:23:56.350Z,4.50
2018-08-09T05:26:32.693Z,7.13
2018-08-09T05:29:04.931Z,7.60
2018-08-09T05:31:36.944Z,7.67
2018-08-09T05:34:09.082Z,5.23
2018-08-09T05:36:38.439Z,14.50
2018-08-09T05:39:11.275Z,7.43
2018-08-09T05:41:43.721Z,5.10
2018-08-09T05:44:16.987Z,8.93
2018-08-09T05:46:49.418Z,6.47
2018-08-09T05:49:20.290Z,8.07
2018-08-09T05:51:49.402Z,5.70
2018-08-09T05:54:18.692Z,7.77
2018-08-09T05:56:47.703Z,9.03
2018-08-09T05:59:16.891Z,7.40
2018-08-09T06:01:46.059Z,3.90
2018-08-09T06:04:15.173Z,7.47
2018-08-09T06:06:44.619Z,8.57
2018-08-09T06:09:14.585Z,7.87
2018-08-09T06:11:43.803Z,7.27
2018-08-09T06:14:12.829Z,18.27
2018-08-09T06:16:41.962Z,3.27
2018-08-09T06:19:17.037Z,8.37
2018-08-09T06:21:46.203Z,4.97
2018-08-09T06:24:15.243Z,3.67
2018-08-09T06:26:45.710Z,6.13
2018-08-09T06:29:14.658Z,4.93
2018-08-09T06:31:44.006Z,6.83
2018-08-09T06:34:13.407Z,4.53
2018-08-09T06:36:45.491Z,4.33
2018-08-09T06:39:16.738Z,4.83
2018-08-09T06:41:46.288Z,6.83
2018-08-09T06:44:15.374Z,5.87
2018-08-09T06:46:44.530Z,5.30
2018-08-09T06:49:13.560Z,6.67
2018-08-09T06:51:42.776Z,4.77
2018-08-09T06:54:11.992Z,4.53
2018-08-09T06:56:41.231Z,4.30
2018-08-09T06:59:10.397Z,5.43
2018-08-09T07:01:39.407Z,6.43
2018-08-09T07:04:08.869Z,6.37
2018-08-09T07:06:41.095Z,11.40
2018-08-09T07:09:11.728Z,6.70
2018-08-09T07:11:40.829Z,7.40
2018-08-09T07:14:09.905Z,7.43
2018-08-09T07:16:39.234Z,4.73
2018-08-09T07:19:08.258Z,4.43
2018-08-09T07:21:37.296Z,4.97
2018-08-09T07:24:06.491Z,6.73
2018-08-09T07:26:35.605Z,4.83
2018-08-09T07:29:04.752Z,7.87
2018-08-09T07:31:34.017Z,8.37
2018-08-09T07:34:04.385Z,6.57
2018-08-09T07:36:40.902Z,5.57
2018-08-09T07:39:10.975Z,4.70
2018-08-09T07:41:41.204Z,3.90
2018-08-09T07:44:10.110Z,7.27
2018-08-09T07:46:39.251Z,6.77
2018-08-09T07:49:08.385Z,8.00
2018-08-09T07:51:37.670Z,5.20
2018-08-09T07:56:41.219Z,6.83
2018-08-09T07:59:10.316Z,10.10
2018-08-09T08:01:39.050Z,6.63
2018-08-09T08:04:07.798Z,8.33
2018-08-09T08:06:38.783Z,6.90
2018-08-09T08:09:10.509Z,6.00
2018-08-09T08:11:39.762Z,5.87
2018-08-09T08:14:08.794Z,4.90
2018-08-09T08:16:37.672Z,7.90
2018-08-09T08:19:06.723Z,8.67
2018-08-09T08:21:35.722Z,8.83
2018-08-09T08:24:04.520Z,13.43
2018-08-09T08:26:33.296Z,8.90
2018-08-09T08:29:03.076Z,8.37
2018-08-09T08:31:31.935Z,10.87
2018-08-09T08:34:03.042Z,10.37
2018-08-09T08:36:32.774Z,10.77
2018-08-09T08:39:02.619Z,7.80
2018-08-09T08:41:34.792Z,7.10
2018-08-09T08:44:04.759Z,10.30
2018-08-09T08:46:33.657Z,10.97
2018-08-09T08:49:04.492Z,10.77
2018-08-09T08:51:33.464Z,12.15
2018-08-09T08:54:02.953Z,8.73
2018-08-09T08:56:32.143Z,7.90
2018-08-09T08:59:04.113Z,8.40
2018-08-09T09:01:33.078Z,12.83
2018-08-09T09:04:06.445Z,8.73
2018-08-09T09:06:35.208Z,11.53
2018-08-09T09:09:06.689Z,12.97
2018-08-09T09:11:35.516Z,6.57
2018-08-09T09:14:06.147Z,9.70
2018-08-09T09:16:37.265Z,10.87
2018-08-09T09:19:07.638Z,11.33
2018-08-09T09:21:36.554Z,12.13
2018-08-09T09:24:06.500Z,9.17
2018-08-09T09:26:35.394Z,8.43
2018-08-09T09:29:06.229Z,9.03
2018-08-09T09:31:39.156Z,6.47
2018-08-09T09:34:08.737Z,8.83
2018-08-09T09:36:37.529Z,7.85
2018-08-09T09:39:08.909Z,8.13
2018-08-09T09:41:39.585Z,6.37
2018-08-09T09:44:09.183Z,8.70
2018-08-09T09:46:38.320Z,9.53
2018-08-09T09:49:09.339Z,7.67
2018-08-09T09:51:39.647Z,11.27
2018-08-09T09:54:09.391Z,7.37
2018-08-09T09:56:41.584Z,6.77
2018-08-09T09:59:10.757Z,12.90
2018-08-09T10:01:39.624Z,7.23
2018-08-09T10:04:08.530Z,6.80
2018-08-09T10:06:45.358Z,8.37
2018-08-09T10:09:14.152Z,10.57
2018-08-09T10:11:43.167Z,6.90
2018-08-09T10:14:11.954Z,7.65
2018-08-09T10:16:41.100Z,9.63
2018-08-09T10:19:09.843Z,9.25
2018-08-09T10:21:38.629Z,9.50
2018-08-09T10:24:08.343Z,8.08
2018-08-09T10:26:37.311Z,7.62
2018-08-09T10:29:08.043Z,7.92
2018-08-09T10:31:37.093Z,9.33
2018-08-09T10:34:06.839Z,9.63
2018-08-09T10:36:35.571Z,9.38
2018-08-09T10:39:07.475Z,6.62
2018-08-09T10:41:36.249Z,9.45
2018-08-09T10:44:05.037Z,11.95
2018-08-09T10:46:33.771Z,9.13
2018-08-09T10:49:02.617Z,7.20
2018-08-09T10:51:38.328Z,9.05
2018-08-09T10:54:09.051Z,6.50
2018-08-09T10:56:38.986Z,10.43
2018-08-09T10:59:08.753Z,9.63
2018-08-09T11:01:37.539Z,8.38
2018-08-09T11:04:06.863Z,9.30
2018-08-09T11:06:35.655Z,9.95
2018-08-09T11:09:06.990Z,8.08
2018-08-09T11:11:35.813Z,8.60
2018-08-09T11:14:04.641Z,8.23
2018-08-09T11:16:33.546Z,8.85
2018-08-09T11:19:02.427Z,8.70
2018-08-09T11:21:31.297Z,11.25
2018-08-09T11:24:00.071Z,7.78
2018-08-09T11:26:28.925Z,14.35
2018-08-09T11:28:57.718Z,13.55
2018-08-09T11:31:32.978Z,10.23
2018-08-09T11:34:02.153Z,9.03
2018-08-09T11:36:34.062Z,10.65
2018-08-09T11:39:02.957Z,9.23
2018-08-09T11:41:31.891Z,11.45
2018-08-09T11:44:00.696Z,8.88
2018-08-09T11:46:29.445Z,9.10
2018-08-09T11:48:58.202Z,9.75
2018-08-09T11:51:49.407Z,8.48
2018-08-09T11:54:18.231Z,9.63
2018-08-09T11:56:47.248Z,9.10
2018-08-09T11:59:16.225Z,12.90
2018-08-09T12:01:45.139Z,9.15
2018-08-09T12:04:15.304Z,10.90
2018-08-09T12:06:44.081Z,7.58
2018-08-09T12:09:15.193Z,10.08
2018-08-09T12:11:44.012Z,12.70
2018-08-09T12:14:13.991Z,9.75
2018-08-09T12:16:42.930Z,10.55
2018-08-09T12:19:13.933Z,10.75
2018-08-09T12:21:43.683Z,9.90
2018-08-09T12:24:14.533Z,11.38
2018-08-09T12:26:43.449Z,10.68
2018-08-09T12:29:18.391Z,7.12
2018-08-09T12:31:47.163Z,8.73
2018-08-09T12:34:16.044Z,9.53
2018-08-09T12:36:54.422Z,10.68
2018-08-09T12:39:23.194Z,12.98
2018-08-09T12:41:55.420Z,8.85
2018-08-09T12:44:24.292Z,8.53
2018-08-09T12:47:07.886Z,7.95
2018-08-09T12:49:37.752Z,11.48
2018-08-09T12:52:12.124Z,10.38
2018-08-09T12:54:41.222Z,8.75
2018-08-09T12:57:15.976Z,17.10
2018-08-09T12:59:44.753Z,9.25
2018-08-09T13:02:15.152Z,17.90
2018-08-09T13:04:43.873Z,11.35
2018-08-09T13:07:12.595Z,14.58
2018-08-09T13:09:41.569Z,11.15
2018-08-09T13:12:10.328Z,11.07
2018-08-09T13:14:39.074Z,13.33
2018-08-09T13:17:07.922Z,13.40
2018-08-09T13:19:36.658Z,13.03
2018-08-09T13:22:05.644Z,13.67
2018-08-09T13:24:34.483Z,12.43
2018-08-09T13:27:04.427Z,12.00
2018-08-09T13:29:33.258Z,14.23
2018-08-09T13:32:03.153Z,17.63
2018-08-09T13:34:32.012Z,9.37
2018-08-09T13:37:14.408Z,11.53
2018-08-09T13:39:43.345Z,10.23
2018-08-09T13:42:12.289Z,13.85
2018-08-09T13:44:41.066Z,13.00
2018-08-09T13:47:09.836Z,8.95
2018-08-09T13:49:39.665Z,10.82
2018-08-09T13:52:08.455Z,9.13
2018-08-09T13:54:37.262Z,7.78
2018-08-09T13:57:06.034Z,10.88
2018-08-09T13:59:35.607Z,7.78
2018-08-09T14:02:06.044Z,8.88
2018-08-09T14:04:34.829Z,6.85
2018-08-09T14:07:11.227Z,5.28
2018-08-09T14:09:40.095Z,5.08
2018-08-09T14:12:08.871Z,6.58
2018-08-09T14:14:37.713Z,5.70
2018-08-09T14:17:06.639Z,7.03
2018-08-09T14:19:35.400Z,5.87
2018-08-09T14:22:04.339Z,8.65
2018-08-09T14:24:33.169Z,8.00
2018-08-09T14:27:01.962Z,9.73
2018-08-09T14:29:30.905Z,8.25
2018-08-09T14:32:00.106Z,10.77
2018-08-09T14:34:28.840Z,7.53
2018-08-09T14:36:57.751Z,4.50
2018-08-09T14:39:26.506Z,4.67
2018-08-09T14:41:55.501Z,7.13
2018-08-09T14:44:25.603Z,5.73
2018-08-09T14:46:55.404Z,5.93
2018-08-09T14:49:25.127Z,6.20
2018-08-09T14:51:54.147Z,6.63
2018-08-09T14:54:24.276Z,5.60
2018-08-09T14:56:53.495Z,5.80
2018-08-09T14:59:24.143Z,5.90
2018-08-09T15:02:00.520Z,8.50
2018-08-09T15:04:29.333Z,10.70
2018-08-09T15:06:58.080Z,10.97
2018-08-09T15:09:26.880Z,10.57
2018-08-09T15:11:55.813Z,9.70
2018-08-09T15:14:25.653Z,11.43
2018-08-09T15:16:54.474Z,9.17
2018-08-09T15:19:29.198Z,15.00
2018-08-09T15:21:57.984Z,9.83
2018-08-09T15:24:27.921Z,8.13
2018-08-09T15:26:56.744Z,9.37
2018-08-09T15:29:26.488Z,8.43
2018-08-09T15:31:55.782Z,10.80
2018-08-09T15:34:25.660Z,8.10
2018-08-09T15:36:55.260Z,9.43
2018-08-09T15:39:25.920Z,7.23
2018-08-09T15:41:55.414Z,9.90
2018-08-09T15:44:24.341Z,9.77
2018-08-09T15:46:57.916Z,5.37
2018-08-09T15:49:27.287Z,7.83
2018-08-09T15:51:56.188Z,6.33
2018-08-09T15:54:30.676Z,8.90
2018-08-09T15:56:59.624Z,7.70
2018-08-09T15:59:30.718Z,7.77
2018-08-09T16:01:59.670Z,7.73
2018-08-09T16:04:31.072Z,6.40
2018-08-09T16:07:02.901Z,7.07
2018-08-09T16:09:32.479Z,5.43
2018-08-09T16:12:01.874Z,7.63
2018-08-09T16:14:31.447Z,7.30
2018-08-09T16:17:00.657Z,7.10
2018-08-09T16:19:30.250Z,5.57
2018-08-09T16:21:59.714Z,6.47
2018-08-09T16:24:30.389Z,6.07
2018-08-09T16:26:59.184Z,3.97
2018-08-09T16:29:28.477Z,5.30
2018-08-09T16:31:57.269Z,4.77
2018-08-09T16:34:26.136Z,4.30
2018-08-09T16:36:54.902Z,4.90
2018-08-09T16:39:23.690Z,4.93
2018-08-09T16:41:52.570Z,4.57
2018-08-09T16:44:21.438Z,6.73
2018-08-09T16:46:51.099Z,4.30
2018-08-09T16:49:20.493Z,5.20
2018-08-09T16:51:50.635Z,4.10
2018-08-09T16:54:19.795Z,6.33
2018-08-09T16:56:48.787Z,4.93
2018-08-09T16:59:17.670Z,5.70
2018-08-09T17:01:47.389Z,3.63
2018-08-09T17:04:21.949Z,5.13
2018-08-09T17:06:51.109Z,5.63
2018-08-09T17:09:20.149Z,7.23
2018-08-09T17:11:49.163Z,4.17
2018-08-09T17:14:22.164Z,5.80
2018-08-09T17:16:52.165Z,7.07
2018-08-09T17:19:21.129Z,5.43
2018-08-09T17:21:50.940Z,6.73
2018-08-09T17:24:19.899Z,6.23
2018-08-09T17:26:48.707Z,4.90
2018-08-09T17:29:17.493Z,8.30
2018-08-09T17:31:46.450Z,6.87
2018-08-09T17:34:15.530Z,6.23
2018-08-09T17:36:44.404Z,7.73
2018-08-09T17:39:17.915Z,5.27
2018-08-09T17:41:46.960Z,8.07
2018-08-09T17:44:16.041Z,7.10
2018-08-09T17:47:03.421Z,6.37
2018-08-09T17:49:38.468Z,10.00
2018-08-09T17:52:07.466Z,9.13
2018-08-09T17:54:39.954Z,8.67
2018-08-09T17:57:08.916Z,7.63
2018-08-09T17:59:38.882Z,4.00
2018-08-09T18:02:07.833Z,4.40
2018-08-09T18:04:38.342Z,4.60
2018-08-09T18:07:07.886Z,3.70
2018-08-09T18:09:38.696Z,3.57
2018-08-09T18:12:09.083Z,3.43
2018-08-09T18:14:39.049Z,5.17
2018-08-09T18:17:08.020Z,4.97
2018-08-09T18:19:39.306Z,5.20
2018-08-09T18:22:08.938Z,5.13
2018-08-09T18:24:48.122Z,4.60
2018-08-09T18:27:17.242Z,6.60
2018-08-09T18:29:46.675Z,3.67
2018-08-09T18:32:17.185Z,4.43
2018-08-09T18:34:46.439Z,6.13
2018-08-09T18:37:16.034Z,4.70
2018-08-09T18:39:45.421Z,4.77
2018-08-09T18:42:14.522Z,4.70
2018-08-09T18:44:45.271Z,7.63
2018-08-09T18:47:15.571Z,5.63
2018-08-09T18:49:45.308Z,4.17
2018-08-09T18:52:16.105Z,8.90
2018-08-09T18:54:45.155Z,5.17
2018-08-09T18:57:14.474Z,6.23
2018-08-09T18:59:48.444Z,6.37
2018-08-09T19:02:17.815Z,5.37
2018-08-09T19:04:50.670Z,4.83
2018-08-09T19:07:19.806Z,4.50
2018-08-09T19:09:52.872Z,6.07
2018-08-09T19:12:22.033Z,4.10
2018-08-09T19:14:51.767Z,7.30
2018-08-09T19:17:21.504Z,3.90
2018-08-09T19:19:50.526Z,3.87
2018-08-09T19:22:20.940Z,4.53
2018-08-09T19:24:50.628Z,2.60
2018-08-09T19:27:19.759Z,3.00
2018-08-09T19:29:48.526Z,2.73
2018-08-09T19:32:17.686Z,4.37
2018-08-09T19:34:47.749Z,3.40
2018-08-09T19:37:20.647Z,3.47
2018-08-09T19:39:50.788Z,2.57
2018-08-09T19:42:21.576Z,4.43
2018-08-09T19:44:53.332Z,4.73
2018-08-09T19:47:25.469Z,6.80
2018-08-09T19:49:55.859Z,3.27
2018-08-09T19:52:27.997Z,3.23
2018-08-09T19:54:58.402Z,5.07
2018-08-09T19:57:28.905Z,2.43
2018-08-09T20:00:00.230Z,3.60
2018-08-09T20:02:31.385Z,2.30
2018-08-09T20:05:02.414Z,3.60
2018-08-09T20:07:33.144Z,2.47
2018-08-09T20:10:03.546Z,2.70
2018-08-09T20:12:34.410Z,3.23
2018-08-09T20:15:07.838Z,2.70
2018-08-09T20:17:42.597Z,2.90
2018-08-09T20:20:19.942Z,3.40
2018-08-09T20:22:50.443Z,3.30
2018-08-09T20:25:21.673Z,3.07
2018-08-09T20:27:53.064Z,2.60
2018-08-09T20:30:23.566Z,2.90
2018-08-09T20:32:54.251Z,2.50
2018-08-09T20:35:25.622Z,3.97
2018-08-09T20:37:57.104Z,4.97
2018-08-09T20:40:29.142Z,3.83
2018-08-09T20:42:59.955Z,10.47
2018-08-09T20:45:30.793Z,6.80
2018-08-09T20:48:02.359Z,1.87
2018-08-09T20:50:33.422Z,2.47
2018-08-09T20:53:04.245Z,3.60
2018-08-09T20:55:35.008Z,3.20
2018-08-09T20:58:05.251Z,3.87
2018-08-09T21:00:36.594Z,5.17
2018-08-09T21:03:06.734Z,2.20
2018-08-09T21:05:38.764Z,2.37
2018-08-09T21:08:09.624Z,2.73
2018-08-09T21:10:41.133Z,4.47
2018-08-09T21:13:13.302Z,4.43
2018-08-09T21:15:50.377Z,3.70
2018-08-09T21:18:22.292Z,2.30
2018-08-09T21:20:53.274Z,7.80
2018-08-09T21:23:24.447Z,2.70
2018-08-09T21:25:56.687Z,2.70
2018-08-09T21:28:27.326Z,3.17
2018-08-09T21:30:57.511Z,2.07
2018-08-09T21:33:28.197Z,2.13
2018-08-09T21:36:00.775Z,3.60
2018-08-09T21:38:32.027Z,1.33
2018-08-09T21:41:07.562Z,3.00
2018-08-09T21:43:38.788Z,1.43
2018-08-09T21:46:10.035Z,1.43
2018-08-09T21:48:40.513Z,1.67
2018-08-09T21:51:11.353Z,3.30
2018-08-09T21:53:42.225Z,1.70
2018-08-09T21:56:13.511Z,1.40
2018-08-09T21:58:45.091Z,3.80
2018-08-09T22:01:15.571Z,1.90
2018-08-09T22:03:45.612Z,1.33
2018-08-09T22:06:20.846Z,2.30
2018-08-09T22:08:56.197Z,1.80
2018-08-09T22:11:31.673Z,2.27
2018-08-09T22:14:08.027Z,1.63
2018-08-09T22:16:43.942Z,1.23
2018-08-09T22:19:20.597Z,1.73
2018-08-09T22:21:56.345Z,1.03
2018-08-09T22:24:27.287Z,1.27
2018-08-09T22:26:57.820Z,1.03
2018-08-09T22:29:32.065Z,1.30
2018-08-09T22:32:03.458Z,0.97
2018-08-09T22:34:38.176Z,2.40
2018-08-09T22:37:08.669Z,2.20
2018-08-09T22:39:39.469Z,1.70
2018-08-09T22:42:10.723Z,2.00
2018-08-09T22:44:41.760Z,1.93
2018-08-09T22:47:12.838Z,1.73
2018-08-09T22:49:44.214Z,2.20
2018-08-09T22:52:15.474Z,3.17
2018-08-09T22:54:46.829Z,1.27
2018-08-09T22:57:18.237Z,1.87
2018-08-09T22:59:49.861Z,2.27
2018-08-09T23:02:21.815Z,1.87
2018-08-09T23:04:53.225Z,1.63
2018-08-09T23:07:24.216Z,1.17
2018-08-09T23:09:55.311Z,2.10
2018-08-09T23:12:27.138Z,1.80
2018-08-09T23:14:59.059Z,1.50
2018-08-09T23:17:30.521Z,2.30
2018-08-09T23:20:01.774Z,3.97
2018-08-09T23:22:33.379Z,3.50
2018-08-09T23:25:06.379Z,4.47
2018-08-09T23:27:37.871Z,3.27
2018-08-09T23:30:09.530Z,3.40
2018-08-09T23:32:40.736Z,4.40
2018-08-09T23:35:12.077Z,4.13
2018-08-09T23:37:43.381Z,3.23
2018-08-09T23:40:14.596Z,3.10
2018-08-09T23:42:46.892Z,8.23
2018-08-09T23:45:17.692Z,6.67
2018-08-09T23:47:49.261Z,4.67
2018-08-09T23:50:19.963Z,3.80
2018-08-09T23:52:51.226Z,8.20
2018-08-09T23:55:22.168Z,4.70
2018-08-09T23:57:53.544Z,5.90
